sensor_id;sensor_type;location;lat;lon;timestamp;pressure;altitude;pressure_sealevel;temperature;humidity
15444;BME280;7822;48.146;11.576;2023-01-24T00:01:16;96250.34;;;14.51;63.30
15444;BME280;7822;48.146;11.576;2023-01-24T00:03:44;96252.00;;;14.52;63.57
15444;BME280;7822;48.146;11.576;2023-01-24T00:06:12;96253.78;;;14.51;63.64
15444;BME280;7822;48.146;11.576;2023-01-24T00:08:39;96259.94;;;14.50;63.32
15444;BME280;7822;48.146;11.576;2023-01-24T00:11:10;96250.34;;;14.51;63.57
15444;BME280;7822;48.146;11.576;2023-01-24T00:13:39;96256.41;;;14.51;63.52
15444;BME280;7822;48.146;11.576;2023-01-24T00:16:08;96264.25;;;14.51;63.77
15444;BME280;7822;48.146;11.576;2023-01-24T00:18:37;96269.47;;;14.51;63.58
15444;BME280;7822;48.146;11.576;2023-01-24T00:21:06;96264.25;;;14.51;63.65
15444;BME280;7822;48.146;11.576;2023-01-24T00:23:36;96272.88;;;14.52;63.46
15444;BME280;7822;48.146;11.576;2023-01-24T00:26:04;96270.25;;;14.52;63.50
15444;BME280;7822;48.146;11.576;2023-01-24T00:28:33;96279.78;;;14.53;63.59
15444;BME280;7822;48.146;11.576;2023-01-24T00:31:02;96276.47;;;14.51;63.55
15444;BME280;7822;48.146;11.576;2023-01-24T00:33:30;96269.56;;;14.50;63.49
15444;BME280;7822;48.146;11.576;2023-01-24T00:35:58;96277.28;;;14.51;63.55
15444;BME280;7822;48.146;11.576;2023-01-24T00:38:29;96278.22;;;14.50;63.40
15444;BME280;7822;48.146;11.576;2023-01-24T00:40:57;96280.00;;;14.50;63.44
15444;BME280;7822;48.146;11.576;2023-01-24T00:43:25;96281.81;;;14.49;63.54
15444;BME280;7822;48.146;11.576;2023-01-24T00:45:55;96275.75;;;14.49;63.66
15444;BME280;7822;48.146;11.576;2023-01-24T00:48:23;96273.97;;;14.49;63.40
15444;BME280;7822;48.146;11.576;2023-01-24T00:50:51;96273.13;;;14.49;63.61
15444;BME280;7822;48.146;11.576;2023-01-24T00:53:19;96277.53;;;14.48;63.72
15444;BME280;7822;48.146;11.576;2023-01-24T00:55:47;96274.06;;;14.48;63.46
15444;BME280;7822;48.146;11.576;2023-01-24T00:58:15;96280.13;;;14.48;63.51
15444;BME280;7822;48.146;11.576;2023-01-24T01:00:43;96272.31;;;14.48;63.47
15444;BME280;7822;48.146;11.576;2023-01-24T01:03:14;96276.69;;;14.48;63.44
15444;BME280;7822;48.146;11.576;2023-01-24T01:05:42;96275.75;;;14.49;63.28
15444;BME280;7822;48.146;11.576;2023-01-24T01:08:10;96288.81;;;14.49;63.53
15444;BME280;7822;48.146;11.576;2023-01-24T01:10:38;96289.63;;;14.49;63.30
15444;BME280;7822;48.146;11.576;2023-01-24T01:13:06;96292.25;;;14.49;63.26
15444;BME280;7822;48.146;11.576;2023-01-24T01:15:34;96292.25;;;14.49;63.17
15444;BME280;7822;48.146;11.576;2023-01-24T01:18:02;96291.41;;;14.49;63.45
15444;BME280;7822;48.146;11.576;2023-01-24T01:20:31;96286.19;;;14.49;63.49
15444;BME280;7822;48.146;11.576;2023-01-24T01:22:59;96289.63;;;14.49;63.06
15444;BME280;7822;48.146;11.576;2023-01-24T01:25:26;96288.81;;;14.49;63.47
15444;BME280;7822;48.146;11.576;2023-01-24T01:27:54;96292.25;;;14.49;63.38
15444;BME280;7822;48.146;11.576;2023-01-24T01:30:22;96286.19;;;14.49;63.46
15444;BME280;7822;48.146;11.576;2023-01-24T01:32:49;96289.63;;;14.49;63.27
15444;BME280;7822;48.146;11.576;2023-01-24T01:35:17;96293.19;;;14.48;63.43
15444;BME280;7822;48.146;11.576;2023-01-24T01:37:46;96294.03;;;14.49;63.30
15444;BME280;7822;48.146;11.576;2023-01-24T01:40:15;96296.63;;;14.49;63.51
15444;BME280;7822;48.146;11.576;2023-01-24T01:42:50;96294.97;;;14.48;63.43
15444;BME280;7822;48.146;11.576;2023-01-24T01:45:39;96290.56;;;14.48;63.64
15444;BME280;7822;48.146;11.576;2023-01-24T01:48:21;96295.78;;;14.48;63.89
15444;BME280;7822;48.146;11.576;2023-01-24T01:50:54;96293.19;;;14.48;63.54
15444;BME280;7822;48.146;11.576;2023-01-24T01:53:28;96292.34;;;14.48;63.59
15444;BME280;7822;48.146;11.576;2023-01-24T01:56:02;96294.97;;;14.48;63.71
15444;BME280;7822;48.146;11.576;2023-01-24T01:58:33;96296.75;;;14.47;63.59
15444;BME280;7822;48.146;11.576;2023-01-24T02:01:02;96287.97;;;14.48;63.51
15444;BME280;7822;48.146;11.576;2023-01-24T02:03:39;96287.13;;;14.48;63.50
15444;BME280;7822;48.146;11.576;2023-01-24T02:06:32;96292.25;;;14.49;63.34
15444;BME280;7822;48.146;11.576;2023-01-24T02:09:04;96292.25;;;14.49;63.76
15444;BME280;7822;48.146;11.576;2023-01-24T02:11:34;96286.19;;;14.49;63.44
15444;BME280;7822;48.146;11.576;2023-01-24T02:14:07;96281.81;;;14.49;63.63
15444;BME280;7822;48.146;11.576;2023-01-24T02:16:53;96290.56;;;14.48;63.48
15444;BME280;7822;48.146;11.576;2023-01-24T02:19:32;96282.75;;;14.48;63.69
15444;BME280;7822;48.146;11.576;2023-01-24T02:22:10;96288.81;;;14.49;63.59
15444;BME280;7822;48.146;11.576;2023-01-24T02:24:47;96291.41;;;14.49;63.80
15444;BME280;7822;48.146;11.576;2023-01-24T02:27:18;96290.56;;;14.48;63.52
15444;BME280;7822;48.146;11.576;2023-01-24T02:29:46;96292.25;;;14.49;63.44
15444;BME280;7822;48.146;11.576;2023-01-24T02:32:14;96289.75;;;14.48;63.34
15444;BME280;7822;48.146;11.576;2023-01-24T02:34:43;96287.13;;;14.48;63.56
15444;BME280;7822;48.146;11.576;2023-01-24T02:37:13;96288.09;;;14.47;63.32
15444;BME280;7822;48.146;11.576;2023-01-24T02:39:45;96287.13;;;14.48;63.68
15444;BME280;7822;48.146;11.576;2023-01-24T02:42:16;96291.53;;;14.47;63.65
15444;BME280;7822;48.146;11.576;2023-01-24T02:44:52;96288.94;;;14.47;63.85
15444;BME280;7822;48.146;11.576;2023-01-24T02:47:29;96287.13;;;14.48;63.82
15444;BME280;7822;48.146;11.576;2023-01-24T02:49:59;96288.94;;;14.47;63.75
15444;BME280;7822;48.146;11.576;2023-01-24T02:52:27;96284.53;;;14.48;63.22
15444;BME280;7822;48.146;11.576;2023-01-24T02:55:13;96276.69;;;14.48;63.54
15444;BME280;7822;48.146;11.576;2023-01-24T02:57:40;96284.53;;;14.48;63.81
15444;BME280;7822;48.146;11.576;2023-01-24T03:00:27;96278.38;;;14.49;63.49
15444;BME280;7822;48.146;11.576;2023-01-24T03:02:55;96280.13;;;14.48;63.20
15444;BME280;7822;48.146;11.576;2023-01-24T03:05:22;96279.28;;;14.48;63.41
15444;BME280;7822;48.146;11.576;2023-01-24T03:07:50;96284.53;;;14.48;63.53
15444;BME280;7822;48.146;11.576;2023-01-24T03:10:18;96281.91;;;14.48;63.66
15444;BME280;7822;48.146;11.576;2023-01-24T03:12:46;96289.75;;;14.48;63.45
15444;BME280;7822;48.146;11.576;2023-01-24T03:15:32;96287.97;;;14.48;63.40
15444;BME280;7822;48.146;11.576;2023-01-24T03:18:17;96279.28;;;14.48;63.48
15444;BME280;7822;48.146;11.576;2023-01-24T03:21:03;96289.75;;;14.48;63.55
15444;BME280;7822;48.146;11.576;2023-01-24T03:23:48;96287.97;;;14.48;63.59
15444;BME280;7822;48.146;11.576;2023-01-24T03:26:33;96293.31;;;14.47;63.36
15444;BME280;7822;48.146;11.576;2023-01-24T03:29:19;96296.75;;;14.47;63.50
15444;BME280;7822;48.146;11.576;2023-01-24T03:32:06;96292.34;;;14.48;63.41
15444;BME280;7822;48.146;11.576;2023-01-24T03:34:51;96292.47;;;14.46;63.30
15444;BME280;7822;48.146;11.576;2023-01-24T03:37:21;96298.41;;;14.48;63.55
15444;BME280;7822;48.146;11.576;2023-01-24T03:40:06;96298.53;;;14.47;63.21
15444;BME280;7822;48.146;11.576;2023-01-24T03:42:34;96302.09;;;14.46;63.51
15444;BME280;7822;48.146;11.576;2023-01-24T03:45:14;96308.97;;;14.47;63.44
15444;BME280;7822;48.146;11.576;2023-01-24T03:47:47;96306.38;;;14.47;63.06
15444;BME280;7822;48.146;11.576;2023-01-24T03:50:22;96310.75;;;14.46;63.26
15444;BME280;7822;48.146;11.576;2023-01-24T03:53:07;96315.03;;;14.47;63.20
15444;BME280;7822;48.146;11.576;2023-01-24T03:55:36;96315.84;;;14.48;63.19
15444;BME280;7822;48.146;11.576;2023-01-24T03:58:04;96321.19;;;14.46;62.98
15444;BME280;7822;48.146;11.576;2023-01-24T04:00:33;96315.03;;;14.47;63.46
15444;BME280;7822;48.146;11.576;2023-01-24T04:03:04;96315.84;;;14.48;63.31
15444;BME280;7822;48.146;11.576;2023-01-24T04:05:32;96323.69;;;14.48;62.91
15444;BME280;7822;48.146;11.576;2023-01-24T04:07:59;96320.25;;;14.47;63.40
15444;BME280;7822;48.146;11.576;2023-01-24T04:10:27;96316.69;;;14.48;63.23
15444;BME280;7822;48.146;11.576;2023-01-24T04:12:55;96326.28;;;14.48;63.21
15444;BME280;7822;48.146;11.576;2023-01-24T04:15:25;96318.47;;;14.48;63.17
15444;BME280;7822;48.146;11.576;2023-01-24T04:17:54;96319.31;;;14.48;63.16
15444;BME280;7822;48.146;11.576;2023-01-24T04:20:25;96309.81;;;14.47;63.24
15444;BME280;7822;48.146;11.576;2023-01-24T04:22:54;96301.16;;;14.47;63.18
15444;BME280;7822;48.146;11.576;2023-01-24T04:25:22;96318.47;;;14.48;63.32
15444;BME280;7822;48.146;11.576;2023-01-24T04:27:50;96311.47;;;14.48;62.82
15444;BME280;7822;48.146;11.576;2023-01-24T04:30:18;96317.66;;;14.47;63.12
15444;BME280;7822;48.146;11.576;2023-01-24T04:32:45;96326.41;;;14.46;63.13
15444;BME280;7822;48.146;11.576;2023-01-24T04:35:15;96311.59;;;14.47;63.05
15444;BME280;7822;48.146;11.576;2023-01-24T04:37:45;96321.06;;;14.48;63.29
15444;BME280;7822;48.146;11.576;2023-01-24T04:40:13;96316.81;;;14.47;63.04
15444;BME280;7822;48.146;11.576;2023-01-24T04:42:41;96315.97;;;14.46;62.90
15444;BME280;7822;48.146;11.576;2023-01-24T04:45:10;96312.44;;;14.47;63.28
15444;BME280;7822;48.146;11.576;2023-01-24T04:47:39;96321.06;;;14.48;62.98
15444;BME280;7822;48.146;11.576;2023-01-24T04:50:08;96321.06;;;14.48;63.13
15444;BME280;7822;48.146;11.576;2023-01-24T04:52:35;96316.69;;;14.48;63.15
15444;BME280;7822;48.146;11.576;2023-01-24T04:55:05;96306.25;;;14.48;63.00
15444;BME280;7822;48.146;11.576;2023-01-24T04:57:33;96314.91;;;14.49;63.08
15444;BME280;7822;48.146;11.576;2023-01-24T05:00:01;96313.13;;;14.49;63.02
15444;BME280;7822;48.146;11.576;2023-01-24T05:02:30;96312.31;;;14.49;63.10
15444;BME280;7822;48.146;11.576;2023-01-24T05:04:59;96317.53;;;14.49;63.18
15444;BME280;7822;48.146;11.576;2023-01-24T05:07:26;96319.16;;;14.50;63.05
15444;BME280;7822;48.146;11.576;2023-01-24T05:09:54;96330.44;;;14.50;63.02
15444;BME280;7822;48.146;11.576;2023-01-24T05:12:23;96320.84;;;14.51;62.88
15444;BME280;7822;48.146;11.576;2023-01-24T05:14:51;96322.63;;;14.50;62.89
15444;BME280;7822;48.146;11.576;2023-01-24T05:17:18;96328.53;;;14.52;63.00
15444;BME280;7822;48.146;11.576;2023-01-24T05:19:46;96331.16;;;14.52;63.01
15444;BME280;7822;48.146;11.576;2023-01-24T05:22:13;96328.53;;;14.52;63.22
15444;BME280;7822;48.146;11.576;2023-01-24T05:24:41;96328.53;;;14.52;63.02
15444;BME280;7822;48.146;11.576;2023-01-24T05:27:09;96319.06;;;14.51;63.06
15444;BME280;7822;48.146;11.576;2023-01-24T05:29:38;96332.00;;;14.53;63.10
15444;BME280;7822;48.146;11.576;2023-01-24T05:32:05;96340.66;;;14.53;62.89
15444;BME280;7822;48.146;11.576;2023-01-24T05:34:33;96340.66;;;14.53;62.56
15444;BME280;7822;48.146;11.576;2023-01-24T05:37:01;96335.44;;;14.53;63.07
15444;BME280;7822;48.146;11.576;2023-01-24T05:39:28;96336.28;;;14.54;62.87
15444;BME280;7822;48.146;11.576;2023-01-24T05:41:56;96338.91;;;14.54;62.70
15444;BME280;7822;48.146;11.576;2023-01-24T05:44:24;96340.53;;;14.55;62.81
15444;BME280;7822;48.146;11.576;2023-01-24T05:46:53;96342.31;;;14.54;63.01
15444;BME280;7822;48.146;11.576;2023-01-24T05:49:20;96338.91;;;14.54;62.80
15444;BME280;7822;48.146;11.576;2023-01-24T05:51:48;96347.53;;;14.54;63.08
15444;BME280;7822;48.146;11.576;2023-01-24T05:54:16;96351.81;;;14.55;63.13
15444;BME280;7822;48.146;11.576;2023-01-24T05:56:43;96348.38;;;14.55;63.19
15444;BME280;7822;48.146;11.576;2023-01-24T05:59:11;96351.81;;;14.55;63.09
15444;BME280;7822;48.146;11.576;2023-01-24T06:01:40;96364.88;;;14.55;63.03
15444;BME280;7822;48.146;11.576;2023-01-24T06:04:09;96356.22;;;14.55;63.06
15444;BME280;7822;48.146;11.576;2023-01-24T06:06:37;96357.88;;;14.56;62.95
15444;BME280;7822;48.146;11.576;2023-01-24T06:09:05;96358.69;;;14.56;63.03
15444;BME280;7822;48.146;11.576;2023-01-24T06:11:33;96358.69;;;14.56;63.04
15444;BME280;7822;48.146;11.576;2023-01-24T06:14:01;96356.06;;;14.56;62.93
15444;BME280;7822;48.146;11.576;2023-01-24T06:16:28;96357.75;;;14.57;63.03
15444;BME280;7822;48.146;11.576;2023-01-24T06:18:56;96360.38;;;14.57;63.09
15444;BME280;7822;48.146;11.576;2023-01-24T06:21:36;96362.13;;;14.57;62.94
15444;BME280;7822;48.146;11.576;2023-01-24T06:24:08;96363.09;;;14.56;62.76
15444;BME280;7822;48.146;11.576;2023-01-24T06:26:37;96363.19;;;14.54;63.16
15444;BME280;7822;48.146;11.576;2023-01-24T06:29:05;96365.00;;;14.54;63.00
15444;BME280;7822;48.146;11.576;2023-01-24T06:31:38;96366.78;;;14.53;63.27
15444;BME280;7822;48.146;11.576;2023-01-24T06:34:21;96373.78;;;14.53;63.05
15444;BME280;7822;48.146;11.576;2023-01-24T06:37:04;96379.94;;;14.52;63.67
15444;BME280;7822;48.146;11.576;2023-01-24T06:39:35;96382.53;;;14.52;63.23
15444;BME280;7822;48.146;11.576;2023-01-24T06:42:03;96385.16;;;14.52;63.37
15444;BME280;7822;48.146;11.576;2023-01-24T06:44:31;96399.03;;;14.52;63.23
15444;BME280;7822;48.146;11.576;2023-01-24T06:46:59;96394.78;;;14.51;63.25
15444;BME280;7822;48.146;11.576;2023-01-24T06:49:27;96399.03;;;14.52;63.46
15444;BME280;7822;48.146;11.576;2023-01-24T06:51:54;96394.78;;;14.51;63.24
15444;BME280;7822;48.146;11.576;2023-01-24T06:54:23;96400.81;;;14.52;63.37
15444;BME280;7822;48.146;11.576;2023-01-24T06:56:51;96400.00;;;14.51;63.50
15444;BME280;7822;48.146;11.576;2023-01-24T06:59:19;96400.81;;;14.52;63.42
15444;BME280;7822;48.146;11.576;2023-01-24T07:01:49;96400.09;;;14.50;63.51
15444;BME280;7822;48.146;11.576;2023-01-24T07:04:17;96401.78;;;14.51;63.35
15444;BME280;7822;48.146;11.576;2023-01-24T07:06:45;96408.78;;;14.50;63.52
15444;BME280;7822;48.146;11.576;2023-01-24T07:09:13;96405.22;;;14.51;63.32
15444;BME280;7822;48.146;11.576;2023-01-24T07:11:42;96405.22;;;14.51;63.35
15444;BME280;7822;48.146;11.576;2023-01-24T07:14:10;96412.22;;;14.51;63.66
15444;BME280;7822;48.146;11.576;2023-01-24T07:16:37;96414.84;;;14.51;63.51
15444;BME280;7822;48.146;11.576;2023-01-24T07:19:07;96412.22;;;14.51;63.15
15444;BME280;7822;48.146;11.576;2023-01-24T07:21:38;96414.84;;;14.51;63.57
15444;BME280;7822;48.146;11.576;2023-01-24T07:24:09;96414.84;;;14.51;63.28
15444;BME280;7822;48.146;11.576;2023-01-24T07:26:41;96418.38;;;14.50;63.51
15444;BME280;7822;48.146;11.576;2023-01-24T07:29:09;96409.75;;;14.49;63.50
15444;BME280;7822;48.146;11.576;2023-01-24T07:31:37;96415.78;;;14.50;63.38
15444;BME280;7822;48.146;11.576;2023-01-24T07:34:05;96427.06;;;14.50;63.62
15444;BME280;7822;48.146;11.576;2023-01-24T07:36:33;96426.22;;;14.50;63.24
15444;BME280;7822;48.146;11.576;2023-01-24T07:39:01;96420.19;;;14.49;63.56
15444;BME280;7822;48.146;11.576;2023-01-24T07:41:28;96420.19;;;14.49;63.63
15444;BME280;7822;48.146;11.576;2023-01-24T07:43:57;96423.59;;;14.50;63.66
15444;BME280;7822;48.146;11.576;2023-01-24T07:46:25;96421.84;;;14.50;63.57
15444;BME280;7822;48.146;11.576;2023-01-24T07:48:53;96422.81;;;14.49;63.39
15444;BME280;7822;48.146;11.576;2023-01-24T07:51:20;96428.84;;;14.50;63.56
15444;BME280;7822;48.146;11.576;2023-01-24T07:53:48;96428.72;;;14.51;63.93
15444;BME280;7822;48.146;11.576;2023-01-24T07:56:15;96437.50;;;14.50;63.70
15444;BME280;7822;48.146;11.576;2023-01-24T07:58:51;96433.25;;;14.49;63.57
15444;BME280;7822;48.146;11.576;2023-01-24T08:01:21;96441.06;;;14.49;63.57
15444;BME280;7822;48.146;11.576;2023-01-24T08:03:50;96446.19;;;14.51;63.63
15444;BME280;7822;48.146;11.576;2023-01-24T08:06:17;96442.84;;;14.49;63.41
15444;BME280;7822;48.146;11.576;2023-01-24T08:08:45;96449.84;;;14.48;63.41
15444;BME280;7822;48.146;11.576;2023-01-24T08:11:13;96455.91;;;14.49;63.61
15444;BME280;7822;48.146;11.576;2023-01-24T08:13:44;96455.91;;;14.49;63.79
15444;BME280;7822;48.146;11.576;2023-01-24T08:16:12;96453.28;;;14.49;63.81
15444;BME280;7822;48.146;11.576;2023-01-24T08:18:41;96460.28;;;14.48;63.78
15444;BME280;7822;48.146;11.576;2023-01-24T08:21:10;96459.34;;;14.49;63.44
15444;BME280;7822;48.146;11.576;2023-01-24T08:23:40;96449.84;;;14.48;63.48
15444;BME280;7822;48.146;11.576;2023-01-24T08:26:07;96461.13;;;14.49;63.76
15444;BME280;7822;48.146;11.576;2023-01-24T08:28:35;96461.13;;;14.49;63.86
15444;BME280;7822;48.146;11.576;2023-01-24T08:31:03;96455.91;;;14.49;63.92
15444;BME280;7822;48.146;11.576;2023-01-24T08:33:31;96463.75;;;14.49;63.61
15444;BME280;7822;48.146;11.576;2023-01-24T08:36:06;96467.28;;;14.48;63.75
15444;BME280;7822;48.146;11.576;2023-01-24T08:38:33;96462.91;;;14.48;63.70
15444;BME280;7822;48.146;11.576;2023-01-24T08:41:02;96460.28;;;14.48;63.80
15444;BME280;7822;48.146;11.576;2023-01-24T08:43:32;96468.13;;;14.48;63.69
15444;BME280;7822;48.146;11.576;2023-01-24T08:45:59;96462.91;;;14.48;63.65
15444;BME280;7822;48.146;11.576;2023-01-24T08:48:27;96467.19;;;14.49;63.75
15444;BME280;7822;48.146;11.576;2023-01-24T08:50:56;96472.50;;;14.48;63.70
15444;BME280;7822;48.146;11.576;2023-01-24T08:53:25;96475.13;;;14.48;63.89
15444;BME280;7822;48.146;11.576;2023-01-24T08:55:52;96478.56;;;14.48;63.98
15444;BME280;7822;48.146;11.576;2023-01-24T08:58:21;96472.50;;;14.48;63.84
15444;BME280;7822;48.146;11.576;2023-01-24T09:00:48;96471.69;;;14.47;63.63
15444;BME280;7822;48.146;11.576;2023-01-24T09:03:17;96482.13;;;14.47;63.58
15444;BME280;7822;48.146;11.576;2023-01-24T09:05:45;96477.72;;;14.48;63.77
15444;BME280;7822;48.146;11.576;2023-01-24T09:08:13;96477.72;;;14.48;63.83
15444;BME280;7822;48.146;11.576;2023-01-24T09:10:43;96479.53;;;14.47;63.91
15444;BME280;7822;48.146;11.576;2023-01-24T09:13:10;96476.09;;;14.47;63.84
15444;BME280;7822;48.146;11.576;2023-01-24T09:15:38;96482.00;;;14.49;63.79
15444;BME280;7822;48.146;11.576;2023-01-24T09:18:06;96476.91;;;14.47;63.75
15444;BME280;7822;48.146;11.576;2023-01-24T09:20:33;96489.00;;;14.48;63.81
15444;BME280;7822;48.146;11.576;2023-01-24T09:23:07;96485.56;;;14.48;63.87
15444;BME280;7822;48.146;11.576;2023-01-24T09:25:35;96491.63;;;14.48;63.79
15444;BME280;7822;48.146;11.576;2023-01-24T09:28:04;96489.84;;;14.49;63.90
15444;BME280;7822;48.146;11.576;2023-01-24T09:30:33;96495.91;;;14.49;63.90
15444;BME280;7822;48.146;11.576;2023-01-24T09:33:02;96499.44;;;14.48;63.88
15444;BME280;7822;48.146;11.576;2023-01-24T09:35:30;96502.06;;;14.48;63.92
15444;BME280;7822;48.146;11.576;2023-01-24T09:37:58;96502.06;;;14.48;63.84
15444;BME280;7822;48.146;11.576;2023-01-24T09:40:42;96507.28;;;14.48;63.99
15444;BME280;7822;48.146;11.576;2023-01-24T09:43:16;96500.28;;;14.49;63.99
15444;BME280;7822;48.146;11.576;2023-01-24T09:45:52;96500.28;;;14.49;63.83
15444;BME280;7822;48.146;11.576;2023-01-24T09:48:25;96500.28;;;14.49;63.88
15444;BME280;7822;48.146;11.576;2023-01-24T09:50:54;96499.44;;;14.48;63.84
15444;BME280;7822;48.146;11.576;2023-01-24T09:53:31;96499.44;;;14.48;64.00
15444;BME280;7822;48.146;11.576;2023-01-24T09:56:05;96501.22;;;14.48;63.93
15444;BME280;7822;48.146;11.576;2023-01-24T09:58:41;96496.00;;;14.48;63.68
15444;BME280;7822;48.146;11.576;2023-01-24T10:01:12;96496.00;;;14.48;63.90
15444;BME280;7822;48.146;11.576;2023-01-24T10:03:40;96500.28;;;14.49;63.76
15444;BME280;7822;48.146;11.576;2023-01-24T10:06:13;96496.84;;;14.48;63.87
15444;BME280;7822;48.146;11.576;2023-01-24T10:08:47;96502.06;;;14.48;63.79
15444;BME280;7822;48.146;11.576;2023-01-24T10:11:24;96496.00;;;14.48;64.01
15444;BME280;7822;48.146;11.576;2023-01-24T10:14:08;96505.63;;;14.47;63.97
15444;BME280;7822;48.146;11.576;2023-01-24T10:16:54;96509.91;;;14.48;63.64
15444;BME280;7822;48.146;11.576;2023-01-24T10:19:37;96508.13;;;14.49;64.14
15444;BME280;7822;48.146;11.576;2023-01-24T10:22:23;96510.75;;;14.49;64.05
15444;BME280;7822;48.146;11.576;2023-01-24T10:25:00;96507.28;;;14.48;63.86
15444;BME280;7822;48.146;11.576;2023-01-24T10:27:35;96503.84;;;14.48;63.63
15444;BME280;7822;48.146;11.576;2023-01-24T10:30:28;96503.84;;;14.48;63.95
15444;BME280;7822;48.146;11.576;2023-01-24T10:33:00;96501.94;;;14.50;63.80
15444;BME280;7822;48.146;11.576;2023-01-24T10:35:33;96503.75;;;14.49;63.85
15444;BME280;7822;48.146;11.576;2023-01-24T10:38:05;96503.63;;;14.51;63.66
15444;BME280;7822;48.146;11.576;2023-01-24T10:40:48;96507.88;;;14.52;63.93
15444;BME280;7822;48.146;11.576;2023-01-24T10:43:17;96507.06;;;14.51;64.13
15444;BME280;7822;48.146;11.576;2023-01-24T10:45:51;96501.00;;;14.51;63.53
15444;BME280;7822;48.146;11.576;2023-01-24T10:48:36;96504.47;;;14.51;63.84
15444;BME280;7822;48.146;11.576;2023-01-24T10:51:16;96501.84;;;14.51;63.91
15444;BME280;7822;48.146;11.576;2023-01-24T10:53:44;96502.78;;;14.50;63.55
15444;BME280;7822;48.146;11.576;2023-01-24T10:56:15;96502.66;;;14.52;63.88
15444;BME280;7822;48.146;11.576;2023-01-24T10:58:53;96500.03;;;14.52;63.87
15444;BME280;7822;48.146;11.576;2023-01-24T11:01:32;96490.56;;;14.51;63.94
15444;BME280;7822;48.146;11.576;2023-01-24T11:04:13;96487.81;;;14.52;63.87
15444;BME280;7822;48.146;11.576;2023-01-24T11:06:44;96483.56;;;14.51;63.85
15444;BME280;7822;48.146;11.576;2023-01-24T11:09:14;96487.94;;;14.51;63.77
15444;BME280;7822;48.146;11.576;2023-01-24T11:11:44;96484.50;;;14.50;63.55
15444;BME280;7822;48.146;11.576;2023-01-24T11:14:14;96482.72;;;14.51;63.72
15444;BME280;7822;48.146;11.576;2023-01-24T11:16:46;96476.66;;;14.50;63.80
15444;BME280;7822;48.146;11.576;2023-01-24T11:19:25;96481.06;;;14.50;63.68
15444;BME280;7822;48.146;11.576;2023-01-24T11:21:55;96483.66;;;14.50;63.79
15444;BME280;7822;48.146;11.576;2023-01-24T11:24:24;96483.56;;;14.51;63.74
15444;BME280;7822;48.146;11.576;2023-01-24T11:27:04;96480.97;;;14.51;63.98
15444;BME280;7822;48.146;11.576;2023-01-24T11:29:32;96475.72;;;14.51;63.90
15444;BME280;7822;48.146;11.576;2023-01-24T11:32:19;96475.03;;;14.49;64.03
15444;BME280;7822;48.146;11.576;2023-01-24T11:34:57;96467.19;;;14.49;63.97
15444;BME280;7822;48.146;11.576;2023-01-24T11:37:51;96474.06;;;14.50;63.99
15444;BME280;7822;48.146;11.576;2023-01-24T11:40:28;96465.38;;;14.50;64.01
15444;BME280;7822;48.146;11.576;2023-01-24T11:43:13;96473.13;;;14.51;64.03
15444;BME280;7822;48.146;11.576;2023-01-24T11:45:57;96464.44;;;14.51;63.99
15444;BME280;7822;48.146;11.576;2023-01-24T11:48:35;96467.19;;;14.49;64.30
15444;BME280;7822;48.146;11.576;2023-01-24T11:51:09;96462.78;;;14.50;64.02
15444;BME280;7822;48.146;11.576;2023-01-24T11:53:50;96454.13;;;14.49;64.02
15444;BME280;7822;48.146;11.576;2023-01-24T11:56:26;96461.13;;;14.49;63.91
15444;BME280;7822;48.146;11.576;2023-01-24T11:59:16;96464.56;;;14.49;63.88
15444;BME280;7822;48.146;11.576;2023-01-24T12:01:53;96456.75;;;14.49;64.13
15444;BME280;7822;48.146;11.576;2023-01-24T12:04:47;96456.75;;;14.49;63.97
15444;BME280;7822;48.146;11.576;2023-01-24T12:07:21;96457.56;;;14.50;63.90
15444;BME280;7822;48.146;11.576;2023-01-24T12:09:57;96454.94;;;14.50;64.23
15444;BME280;7822;48.146;11.576;2023-01-24T12:12:35;96457.56;;;14.50;64.21
15444;BME280;7822;48.146;11.576;2023-01-24T12:15:25;96463.63;;;14.50;63.94
15444;BME280;7822;48.146;11.576;2023-01-24T12:18:27;96445.34;;;14.50;63.80
15444;BME280;7822;48.146;11.576;2023-01-24T12:21:04;96452.22;;;14.51;64.10
15444;BME280;7822;48.146;11.576;2023-01-24T12:23:41;96447.00;;;14.51;64.33
15444;BME280;7822;48.146;11.576;2023-01-24T12:26:14;96453.88;;;14.52;63.91
15444;BME280;7822;48.146;11.576;2023-01-24T12:28:49;96440.13;;;14.50;63.99
15444;BME280;7822;48.146;11.576;2023-01-24T12:31:26;96445.22;;;14.52;64.07
15444;BME280;7822;48.146;11.576;2023-01-24T12:34:00;96447.81;;;14.52;64.05
15444;BME280;7822;48.146;11.576;2023-01-24T12:36:40;96441.88;;;14.50;64.19
15444;BME280;7822;48.146;11.576;2023-01-24T12:39:14;96445.34;;;14.50;64.06
15444;BME280;7822;48.146;11.576;2023-01-24T12:41:44;96439.19;;;14.51;64.32
15444;BME280;7822;48.146;11.576;2023-01-24T12:44:25;96434.88;;;14.50;63.96
15444;BME280;7822;48.146;11.576;2023-01-24T12:47:04;96436.56;;;14.51;64.00
15444;BME280;7822;48.146;11.576;2023-01-24T12:49:39;96437.38;;;14.52;64.15
15444;BME280;7822;48.146;11.576;2023-01-24T12:52:19;96433.00;;;14.52;64.07
15444;BME280;7822;48.146;11.576;2023-01-24T12:54:51;96424.31;;;14.52;63.93
15444;BME280;7822;48.146;11.576;2023-01-24T12:57:25;96426.94;;;14.52;63.92
15444;BME280;7822;48.146;11.576;2023-01-24T12:59:54;96423.38;;;14.53;64.27
15444;BME280;7822;48.146;11.576;2023-01-24T13:02:34;96421.72;;;14.52;64.03
15444;BME280;7822;48.146;11.576;2023-01-24T13:05:20;96424.44;;;14.50;64.07
15444;BME280;7822;48.146;11.576;2023-01-24T13:08:01;96419.09;;;14.52;64.07
15444;BME280;7822;48.146;11.576;2023-01-24T13:10:43;96425.16;;;14.52;64.17
15444;BME280;7822;48.146;11.576;2023-01-24T13:13:17;96426.00;;;14.53;64.05
15444;BME280;7822;48.146;11.576;2023-01-24T13:15:58;96418.16;;;14.53;64.37
15444;BME280;7822;48.146;11.576;2023-01-24T13:18:47;96420.78;;;14.53;64.16
15444;BME280;7822;48.146;11.576;2023-01-24T13:21:24;96416.38;;;14.53;64.22
15444;BME280;7822;48.146;11.576;2023-01-24T13:24:22;96412.94;;;14.53;63.90
15444;BME280;7822;48.146;11.576;2023-01-24T13:27:12;96419.00;;;14.53;63.93